ADDS METAR Data INFO
IDs: Format: Raw Decoded Include TAF

Data at: 0431 UTC 24 Apr 2018

KLAR 240353Z AUTO 04009KT 10SM FEW004 OVC009 01/01 A3025 RMK AO2 WSHFT 0313 SLP188 T00110006
KLAR 240345Z AUTO 05008KT 10SM BKN004 OVC009 01/01 A3024 RMK AO2 WSHFT 0313 CIG 004V008 T00110011
KLAR 240333Z AUTO 06011KT 10SM SCT004 BKN010 OVC016 02/01 A3023 RMK AO2 WSHFT 0313 CIG 007V011 T00170011
KLAR 240324Z AUTO 01014KT 10SM FEW004 BKN010 BKN016 02/02 A3023 RMK AO2 CIG 007V011 T00220017
KLAR 240320Z AUTO 03011G24KT 10SM SCT010 BKN016 03/02 A3023 RMK AO2 T00330017
KLAR 240253Z AUTO 32018G27KT 10SM CLR 03/01 A3021 RMK AO2 PK WND 33027/0244 WSHFT 0217 SLP182 T00280006 53021
KLAR 240237Z AUTO 33018G24KT 10SM FEW021 FEW026 FEW050 03/01 A3020 RMK AO2 WSHFT 0217 T00330011
KLAR 240153Z AUTO 05004KT 10SM CLR 05/03 A3014 RMK AO2 SLP162 T00500028
KLAR 240053Z AUTO 05006KT 10SM CLR 06/03 A3012 RMK AO2 SLP167 T00610028
KLAR 232353Z AUTO 34020G30KT 10SM FEW023 07/03 A3013 RMK AO2 PK WND 30042/2323 LTG DSNT E RAB26E45 SLP166 P0002 60002 T00670033 10200 20067 53021
KLAR 232341Z AUTO 33024G36KT 10SM -RA FEW021 SCT034 BKN049 07/04 A3012 RMK AO2 PK WND 30042/2323 RAB26 P0002 T00720044
KLAR 232317Z AUTO 33030G36KT 10SM VCTS BKN090 OVC110 11/01 A3011 RMK AO2 PK WND 33036/2317 LTG DSNT W PRESRR T01110011
KLAR 232253Z AUTO 35018G32KT 10SM BKN100 BKN110 13/02 A3006 RMK AO2 PK WND 32035/2238 LTG DSNT W SLP124 T01330022
KLAR 232153Z AUTO 34020G27KT 10SM SCT095 BKN110 15/01 A3006 RMK AO2 PK WND 33027/2152 WSHFT 2040 SLP115 T01500011
KLAR 232100Z AUTO 33018G24KT 10SM SCT090 SCT120 17/01 A3005 RMK AO2 WSHFT 2040 LTG DSNT E T01670006
KLAR 232053Z AUTO 32017G22KT 10SM FEW090 SCT120 18/01 A3005 RMK AO2 PK WND 27031/2030 WSHFT 2034 LTG DSNT E SLP103 T01780006 58005
KLAR 231953Z AUTO 27017G24KT 10SM CLR 19/M02 A3005 RMK AO2 SLP100 T01891022
KLAR 231853Z AUTO 26013KT 10SM SCT080 OVC100 14/M01 A3008 RMK AO2 PK WND 27046/1824 SLP120 T01441006
KLAR 231826Z AUTO 28032G46KT 10SM VCTS SQ BKN090 14/M01 A3009 RMK AO2 PK WND 27046/1824 T01441011
KLAR 231753Z AUTO 23006G24KT 10SM FEW085 17/M02 A3007 RMK AO2 SLP104 T01721022 10183 20011 56008
KLAR 231653Z AUTO 22011KT 10SM SCT110 16/M02 A3008 RMK AO2 SLP110 T01561022
KLAR 231553Z AUTO 22012KT 10SM CLR 14/00 A3009 RMK AO2 SLP116 T01440000
KLAR 231453Z AUTO 19009KT 10SM CLR 11/01 A3010 RMK AO2 SLP134 T01060011 50003
KLAR 231353Z AUTO 20008KT 10SM CLR 07/02 A3011 RMK AO2 SLP135 T00670022 $
KLAR 231253Z AUTO 18009KT 10SM CLR 02/00 A3011 RMK AO2 SLP139 T00220000 $
KLAR 231153Z AUTO 18009KT 10SM OVC100 03/01 A3009 RMK AO2 SLP124 T00280006 10056 20017 56001 $
KLAR 231053Z AUTO 21010KT 10SM BKN100 02/00 A3010 RMK AO2 SLP124 T00220000 $
KLAR 230953Z AUTO 19010KT 10SM CLR 02/00 A3010 RMK AO2 SLP124 T00220000 $
KLAR 230853Z AUTO 16012KT 10SM CLR 03/00 A3010 RMK AO2 SLP129 T00330000 58004 $
KLAR 230753Z AUTO 17011KT 10SM FEW100 03/01 A3011 RMK AO2 SLP133 T00330006 $
KLAR 230653Z AUTO 15014KT 10SM FEW120 04/01 A3012 RMK AO2 SLP136 T00440006 401671039 $
KLAR 230553Z AUTO 14015KT 10SM BKN110 06/01 A3012 RMK AO2 SLP135 T00560011 10161 20056 58005 $
KLAR 230453Z AUTO 15014KT 10SM CLR 06/02 A3012 RMK AO2 SLP141 T00610017 $
KLAR 230353Z AUTO 15011KT 10SM CLR 07/02 A3014 RMK AO2 SLP150 T00670022 $
KLAR 230253Z AUTO 14009KT 10SM CLR 06/02 A3013 RMK AO2 SLP164 T00610017 53007 $
KLAR 230153Z AUTO 14013KT 10SM CLR 09/02 A3012 RMK AO2 SLP161 T00940022 $
KLAR 230053Z AUTO 12010KT 10SM BKN080 13/01 A3011 RMK AO2 SLP153 T01330006 $
KLAR 222353Z AUTO 01005KT 10SM FEW075 16/M02 A3011 RMK AO2 SLP144 T01611017 10167 20122 56011 $
KLAR 222253Z AUTO VRB04KT 10SM CLR 17/M01 A3012 RMK AO2 SLP146 T01671011 $
KLAR 222153Z AUTO 27007G14KT 10SM CLR 16/M02 A3013 RMK AO2 SLP151 T01611017 $
KLAR 222053Z AUTO VRB05KT 10SM CLR 14/M02 A3015 RMK AO2 SLP169 T01441017 58015 $
KLAR 221953Z AUTO 04007KT 10SM CLR 14/M03 A3017 RMK AO2 SLP173 T01441028 $
KLAR 221853Z AUTO 35006KT 10SM CLR 13/M03 A3019 RMK AO2 SLP178 T01331028 $
KLAR 221753Z AUTO 03007KT 10SM CLR 12/M01 A3021 RMK AO2 SLP189 T01221006 10122 21033 58002 $
KLAR 221653Z AUTO 34004KT 10SM CLR 10/01 A3022 RMK AO2 SLP200 T01000006 $